Huescar, Spain
Current Conditions -  °F | °C
As of 9:30 AM on Thursday 18 Dec 2014 (Local Time) from LEAM Reporting Station
Few Clouds Few Clouds  
Wind Chill: 57°   Ceiling: Unl
Heat Index: 57°   Visibility: 6mi
Dew Point: 45°   Wind: 2mph
Humidity: 63%   Direction: NA
Pressure: 30.27"   Gusts: NA
Location:  37.81°N, 2.54°W
Report Text: LEAM 180830Z VRB02KT 9999 FEW015 14/07 Q1025
Loading
Personal Weather Stations






























Interactive Weather Map New forecast layout! Learn more

10-Day Weather Forecast

Advertisements
Track Severe Weather on mobile